aeg.de alexa rank chart, aeg.de alexa rank daily changes

aeg.de alexa rank chart, aeg.de alexa rank daily changes

aeg.de
Actual rank:
137 487

RANK HISTORY

Date Rank Diff
2017/10/12 137 487 +2 981
2017/10/11 134 506 +1 552
2017/10/10 132 954 +1 923
2017/10/09 131 031 -359
2017/10/08 131 390 -2 407
2017/10/07 133 797 -308
2017/10/06 134 105 +914
2017/10/05 133 191 +2 036
2017/10/04 131 155 -831
2017/10/03 131 986 -646
2017/10/02 132 632 -843
2017/10/01 133 475 -294
2017/09/30 133 769 +836
2017/09/29 132 933 +1 062
2017/09/28 131 871 +877
2017/09/27 130 994 -5 470
2017/09/26 136 464 +1 693
2017/09/25 134 771 -3 950
2017/09/24 138 721 +381
2017/09/23 138 340 -3 192
2017/09/22 141 532 +856
2017/09/20 140 676 +1 741
2017/09/19 138 935 -1 876
2017/09/18 140 811 -1 171
2017/09/17 141 982 +406
2017/09/16 141 576 -27
2017/09/15 141 603 +1 685
2017/09/14 139 918 -1 019
2017/09/13 140 937 -173
2017/09/12 141 110 -6 034
2017/09/11 147 144 -1 441
2017/09/10 148 585 -6 175
2017/09/09 154 760 +433
2017/09/08 154 327 -573
2017/09/07 154 900 +1 511
2017/09/06 153 389 -1 385
2017/09/05 154 774 -2 924
2017/09/04 157 698 -5 728
2017/09/03 163 426 +418
2017/09/02 163 008 -1 206
2017/09/01 164 214 +3 660
2017/08/31 160 554 -317
2017/08/30 160 871 -1 220
2017/08/29 162 091 +499
2017/08/28 161 592 -3 517
2017/08/27 165 109 +2 564
2017/08/26 162 545 -3 818
2017/08/25 166 363 -3 467
2017/08/24 169 830 +1 437
2017/08/23 168 393 -553
2017/08/22 168 946 -1 744
2017/08/21 170 690 +1 632
2017/08/20 169 058 -3 815
2017/08/19 172 873 +587
2017/08/18 172 286 -1 361
2017/08/17 173 647 +6 854
2017/08/16 166 793 +451
2017/08/15 166 342 +565
2017/08/14 165 777 +3 220
2017/08/13 162 557

WIDGET FOR YOUR SITE

DOMAINS WITH THE NEAREST RANK

Domain Rank
justhd.space 137 482
intnet.mu 137 483
sleviste.cz 137 484
kelloggs.com 137 485
weisse-liste.de 137 486
aeg.de 137 487
honadrama.me 137 488
ctrl.blog 137 489
torrentfilmi.org 137 490
vse10.ru 137 491
freepacman.org 137 492

DOMAINS WITH THE NEAREST RANK BY TLD .de

Domain Rank
berliner-woche.de 137 240
hr-online.de 137 241
erzbistum-koeln.de 137 246
wohnwagen-forum.de 137 317
weisse-liste.de 137 486
aeg.de 137 487
nh-hotels.de 137 518
mt.de 137 521
packlink.de 137 572
parkopedia.de 137 649
discountfan.de 137 709